Time;durP1;ratioP1;P1;durP2;ratioP2;P2;SDS_P1;SDS_P2;PMS_P1;PMS_P2;Temp;Humidity;BMP_temperature;BMP_pressure;BME280_temperature;BME280_humidity;BME280_pressure;Samples;Min_cycle;Max_cycle;Signal;HPM_P1;HPM_P2
2022/01/26 00:00:56;;;;;;;91.70;47.30;;;;;;;6.73;59.18;103288.97;5091840;28;20407;-56
2022/01/26 00:06:17;;;;;;;87.95;45.55;;;;;;;6.71;59.60;103304.28;5097336;28;20089;-56
2022/01/26 00:08:46;;;;;;;87.38;46.05;;;;;;;6.68;59.52;103309.91;5102663;28;20063;-56
2022/01/26 00:11:13;;;;;;;88.70;46.20;;;;;;;6.67;59.11;103321.56;5102710;28;20056;-56
2022/01/26 00:13:41;;;;;;;89.47;46.40;;;;;;;6.66;59.66;103318.06;5101911;28;20051;-56
2022/01/26 00:16:19;;;;;;;98.15;49.35;;;;;;;6.66;59.16;103310.03;5102379;28;20074;-56
2022/01/26 00:18:48;;;;;;;93.53;46.42;;;;;;;6.65;59.35;103313.69;5101057;28;20127;-56
2022/01/26 00:21:26;;;;;;;90.80;46.83;;;;;;;6.64;59.51;103308.47;5102051;28;20048;-56
2022/01/26 00:24:22;;;;;;;91.30;47.80;;;;;;;6.65;59.06;103303.00;5102325;28;20052;-56
2022/01/26 00:27:21;;;;;;;89.43;45.58;;;;;;;6.65;59.34;103315.50;5102259;28;20052;-56
2022/01/26 00:30:00;;;;;;;93.82;47.75;;;;;;;6.63;59.38;103315.66;5101348;28;20078;-56
2022/01/26 00:40:52;;;;;;;94.50;48.28;;;;;;;6.55;59.28;103303.94;5102509;28;20110;-56
2022/01/26 00:43:24;;;;;;;89.88;46.97;;;;;;;6.57;59.76;103304.66;5093371;28;20052;-56
2022/01/26 00:45:56;;;;;;;90.50;48.08;;;;;;;6.51;59.43;103298.88;5102270;28;20044;-56
2022/01/26 00:48:25;;;;;;;94.93;48.65;;;;;;;6.56;59.30;103305.63;5101566;28;20044;-56
2022/01/26 00:50:54;;;;;;;91.85;48.40;;;;;;;6.59;59.39;103308.03;5102077;28;20043;-56
2022/01/26 00:53:29;;;;;;;93.88;49.88;;;;;;;6.59;58.65;103308.03;5101580;28;20071;-56
2022/01/26 00:55:56;;;;;;;86.80;45.63;;;;;;;6.59;58.92;103303.53;5101490;28;20066;-55
2022/01/26 00:58:24;;;;;;;87.18;46.45;;;;;;;6.57;58.46;103305.50;5101036;28;20048;-56
2022/01/26 01:00:53;;;;;;;93.65;48.00;;;;;;;6.57;59.04;103293.97;5101567;28;20044;-56
2022/01/26 01:03:22;;;;;;;91.30;47.08;;;;;;;6.57;59.10;103302.00;5101136;28;20043;-56
2022/01/26 01:05:55;;;;;;;100.22;47.95;;;;;;;6.57;59.03;103296.63;5101406;28;20123;-55
2022/01/26 01:08:25;;;;;;;90.93;46.05;;;;;;;6.55;58.80;103295.94;5101460;28;20068;-56
2022/01/26 01:10:57;;;;;;;94.25;47.60;;;;;;;6.54;58.96;103289.75;5101318;28;20051;-56
2022/01/26 01:13:33;;;;;;;93.90;47.17;;;;;;;6.56;59.20;103290.44;5100782;28;20048;-56
2022/01/26 01:16:02;;;;;;;96.80;50.47;;;;;;;6.52;59.14;103287.22;5101690;28;20162;-56
2022/01/26 01:18:38;;;;;;;95.10;49.40;;;;;;;6.53;58.65;103282.72;5098497;28;20044;-56
2022/01/26 01:29:25;;;;;;;94.68;47.63;;;;;;;6.38;58.55;103281.38;5100486;28;20054;-56
2022/01/26 01:31:56;;;;;;;96.85;46.60;;;;;;;6.38;58.28;103273.38;5101293;28;20044;-55
2022/01/26 01:34:27;;;;;;;89.82;47.35;;;;;;;6.39;58.74;103281.25;5099673;28;20044;-55
2022/01/26 01:37:01;;;;;;;92.82;48.45;;;;;;;6.39;58.55;103277.75;5100840;28;20036;-55
2022/01/26 01:39:30;;;;;;;102.20;50.22;;;;;;;6.41;58.59;103276.63;5100607;28;20080;-55
2022/01/26 01:41:58;;;;;;;96.45;46.45;;;;;;;6.42;58.89;103275.63;5095097;28;20052;-56
2022/01/26 01:44:27;;;;;;;94.57;48.33;;;;;;;6.41;58.74;103267.75;5099170;28;20075;-56
2022/01/26 01:46:56;;;;;;;96.57;48.67;;;;;;;6.41;58.77;103267.75;5100753;28;20048;-56
2022/01/26 01:49:24;;;;;;;96.70;47.03;;;;;;;6.41;58.68;103267.75;5100015;28;20068;-56
2022/01/26 01:51:56;;;;;;;96.78;48.75;;;;;;;6.38;59.11;103260.88;5100886;28;20044;-57
2022/01/26 01:54:24;;;;;;;96.93;48.75;;;;;;;6.41;59.19;103260.59;5100491;28;20115;-56
2022/01/26 01:56:56;;;;;;;94.22;46.85;;;;;;;6.41;59.05;103255.25;5094387;28;20231;-55
2022/01/26 01:59:26;;;;;;;90.90;46.63;;;;;;;6.41;59.41;103265.94;5099965;28;20048;-56
2022/01/26 02:01:55;;;;;;;90.10;45.88;;;;;;;6.39;59.03;103259.88;5100763;28;20078;-57
2022/01/26 02:04:23;;;;;;;102.13;48.58;;;;;;;6.42;59.24;103261.44;5099797;28;20048;-56
2022/01/26 02:06:51;;;;;;;92.72;46.55;;;;;;;6.42;59.41;103259.63;5100615;28;20062;-56
2022/01/26 02:09:19;;;;;;;95.90;49.08;;;;;;;6.40;59.40;103255.38;5100316;28;20044;-55
2022/01/26 02:11:50;;;;;;;96.15;48.65;;;;;;;6.39;58.90;103262.56;5100802;28;20036;-55
2022/01/26 02:14:24;;;;;;;91.93;46.47;;;;;;;6.38;59.19;103258.19;5099796;28;20048;-55
2022/01/26 02:17:01;;;;;;;93.18;45.05;;;;;;;6.37;59.08;103253.00;5100612;28;20039;-56
2022/01/26 02:50:16;;;;;;;96.13;46.17;;;;;;;6.34;58.91;103229.22;5098884;28;20048;-56
2022/01/26 02:52:55;;;;;;;90.32;45.63;;;;;;;6.35;59.09;103221.06;5099666;28;20048;-56
2022/01/26 02:55:36;;;;;;;93.43;46.63;;;;;;;6.32;58.87;103213.34;5099453;28;20082;-56
2022/01/26 02:58:41;;;;;;;96.13;48.70;;;;;;;6.32;58.70;103202.66;5098533;28;20044;-56
2022/01/26 03:01:34;;;;;;;93.95;44.40;;;;;;;6.34;59.19;103205.19;5099157;28;20075;-56
2022/01/26 03:04:09;;;;;;;93.05;47.47;;;;;;;6.34;59.12;103192.69;5098843;28;20044;-56
2022/01/26 03:06:43;;;;;;;91.10;45.67;;;;;;;6.34;59.16;103190.00;5099826;28;20052;-56
2022/01/26 03:09:14;;;;;;;97.40;46.67;;;;;;;6.32;58.97;103183.97;5099386;28;20083;-56
2022/01/26 03:11:46;;;;;;;90.95;45.22;;;;;;;6.33;58.95;103185.66;5099432;28;20048;-56
2022/01/26 03:14:24;;;;;;;96.50;46.35;;;;;;;6.33;59.21;103196.34;5098665;28;20044;-55
2022/01/26 03:16:57;;;;;;;93.30;46.40;;;;;;;6.31;59.15;103190.28;5093577;28;20044;-56
2022/01/26 03:19:33;;;;;;;94.53;47.17;;;;;;;6.30;59.26;103180.59;5101631;28;20059;-56
2022/01/26 03:28:05;;;;;;;91.95;46.38;;;;;;;6.28;59.37;103187.88;5103713;28;20048;-56
2022/01/26 03:30:46;;;;;;;94.72;44.40;;;;;;;6.29;59.30;103194.06;5102535;28;20211;-57
2022/01/26 03:33:25;;;;;;;93.30;44.67;;;;;;;6.29;59.36;103183.38;5102520;28;20475;-55
2022/01/26 03:35:56;;;;;;;93.47;46.40;;;;;;;6.27;59.44;103180.84;5103236;28;20083;-55
2022/01/26 03:38:27;;;;;;;91.55;46.08;;;;;;;6.27;59.81;103182.69;5102676;28;20071;-56
2022/01/26 03:41:11;;;;;;;93.50;44.70;;;;;;;6.28;59.71;103192.38;5094201;28;20055;-55
2022/01/26 03:43:40;;;;;;;88.93;44.10;;;;;;;6.28;59.72;103187.88;5090491;28;20101;-56
2022/01/26 03:46:08;;;;;;;86.50;42.78;;;;;;;6.27;59.74;103188.88;5103304;28;20051;-56
2022/01/26 03:48:36;;;;;;;85.40;43.10;;;;;;;6.23;60.02;103183.94;5102144;28;20046;-56
2022/01/26 03:51:04;;;;;;;90.18;44.88;;;;;;;6.27;59.96;103190.69;5102423;28;20040;-56
2022/01/26 03:53:32;;;;;;;93.50;43.78;;;;;;;6.29;59.86;103197.59;5102278;28;20040;-56
2022/01/26 03:55:59;;;;;;;88.05;44.40;;;;;;;6.27;59.91;103196.03;5099465;28;20055;-56
2022/01/26 03:58:27;;;;;;;93.25;45.38;;;;;;;6.27;60.02;103188.03;5101973;28;20437;-56
2022/01/26 04:00:56;;;;;;;91.28;44.60;;;;;;;6.27;59.96;103188.88;5102899;28;20515;-56
2022/01/26 04:03:24;;;;;;;89.00;42.60;;;;;;;6.27;59.98;103177.34;5102424;28;20176;-56
2022/01/26 04:05:52;;;;;;;93.10;45.70;;;;;;;6.26;59.97;103184.50;5102756;28;20047;-56
2022/01/26 04:08:24;;;;;;;93.50;43.30;;;;;;;6.27;59.98;103188.88;5097382;28;20384;-56
2022/01/26 04:11:03;;;;;;;91.80;44.53;;;;;;;6.26;60.09;103194.34;5103098;28;20043;-56
2022/01/26 04:13:31;;;;;;;91.75;43.55;;;;;;;6.24;59.85;103194.47;5101868;28;20080;-56
2022/01/26 04:16:00;;;;;;;92.85;45.38;;;;;;;6.23;59.78;103211.47;5102825;28;20085;-56
2022/01/26 04:18:33;;;;;;;88.35;44.97;;;;;;;6.23;59.92;103206.13;5095757;28;20043;-56
2022/01/26 04:21:13;;;;;;;96.45;45.83;;;;;;;6.23;60.14;103208.81;5102153;28;20032;-56
2022/01/26 04:23:47;;;;;;;86.68;43.92;;;;;;;6.24;60.07;103193.63;5102406;28;20068;-55
2022/01/26 04:26:19;;;;;;;88.82;42.38;;;;;;;6.23;60.23;103186.59;5101411;28;20083;-56
2022/01/26 04:28:52;;;;;;;89.45;43.95;;;;;;;6.22;60.28;103188.44;5100094;28;20403;-56
2022/01/26 04:31:22;;;;;;;89.63;43.50;;;;;;;6.23;60.12;103186.59;5101146;28;20312;-56
2022/01/26 04:33:51;;;;;;;89.97;44.17;;;;;;;6.20;60.09;103188.56;5100387;28;20481;-55
2022/01/26 04:36:24;;;;;;;86.07;44.55;;;;;;;6.22;60.13;103180.41;5092105;28;20505;-56
2022/01/26 04:38:56;;;;;;;89.57;44.17;;;;;;;6.21;59.98;103200.09;5101086;28;20214;-56
2022/01/26 04:41:30;;;;;;;90.40;43.95;;;;;;;6.20;60.01;103201.91;5100838;28;20036;-56
2022/01/26 04:44:03;;;;;;;93.68;45.35;;;;;;;6.22;59.93;103203.59;5093698;28;20040;-56
2022/01/26 04:46:32;;;;;;;84.45;42.35;;;;;;;6.22;60.24;103187.59;5101158;28;20153;-56
2022/01/26 04:49:00;;;;;;;90.10;43.60;;;;;;;6.19;60.16;103202.91;5100310;28;20048;-56
2022/01/26 04:51:28;;;;;;;91.50;44.33;;;;;;;6.23;60.27;103207.97;5101085;28;20044;-56
2022/01/26 04:53:56;;;;;;;90.43;42.90;;;;;;;6.22;60.36;103215.13;5100563;28;20074;-56
2022/01/26 04:56:23;;;;;;;86.32;43.95;;;;;;;6.19;60.47;103224.25;5100373;28;20209;-56
2022/01/26 04:58:51;;;;;;;87.15;43.30;;;;;;;6.20;60.23;103228.63;5099917;28;20048;-56
2022/01/26 05:01:19;;;;;;;93.32;46.20;;;;;;;6.20;60.15;103225.09;5100091;28;20071;-56
2022/01/26 05:03:48;;;;;;;92.60;44.90;;;;;;;6.19;60.29;103228.75;5100084;28;20109;-56
2022/01/26 05:06:16;;;;;;;89.15;42.80;;;;;;;6.20;60.53;103219.75;5100714;28;20044;-56
2022/01/26 05:08:44;;;;;;;84.70;42.58;;;;;;;6.20;60.35;103220.59;5100393;28;20200;-56
2022/01/26 05:11:16;;;;;;;87.07;44.05;;;;;;;6.19;60.43;103224.25;5100340;28;20055;-56
2022/01/26 05:13:59;;;;;;;87.20;43.53;;;;;;;6.18;60.58;103211.03;5089366;28;20075;-56
2022/01/26 05:16:27;;;;;;;84.95;41.17;;;;;;;6.18;60.19;103214.56;5100605;28;20067;-56
2022/01/26 05:18:57;;;;;;;86.80;42.78;;;;;;;6.19;60.22;103215.41;5093582;28;20055;-56
2022/01/26 05:21:27;;;;;;;86.80;41.22;;;;;;;6.16;60.73;103215.66;5100160;28;20090;-56
2022/01/26 05:23:55;;;;;;;94.13;43.80;;;;;;;6.17;60.33;103223.53;5099960;28;20040;-56
2022/01/26 05:26:22;;;;;;;87.43;41.70;;;;;;;6.16;60.54;103213.84;5061555;28;1089542;-56
2022/01/26 05:28:50;;;;;;;92.25;43.78;;;;;;;6.18;60.31;103200.34;5100304;28;20302;-56
2022/01/26 05:31:18;;;;;;;86.63;42.85;;;;;;;6.17;60.32;103191.50;5100918;28;20057;-56
2022/01/26 05:33:46;;;;;;;91.50;43.65;;;;;;;6.16;60.57;103181.81;5100488;28;20075;-55
2022/01/26 05:36:15;;;;;;;88.53;41.60;;;;;;;6.15;60.54;103169.44;5101314;28;20097;-56
2022/01/26 05:38:43;;;;;;;83.22;43.05;;;;;;;6.07;60.68;103147.06;5100166;28;20047;-56
2022/01/26 05:41:11;;;;;;;88.72;40.67;;;;;;;6.14;60.76;103175.75;5099205;28;20069;-56
2022/01/26 05:43:39;;;;;;;86.53;42.03;;;;;;;6.14;60.69;103178.44;5088578;28;20074;-56
2022/01/26 05:46:12;;;;;;;95.60;45.00;;;;;;;6.14;60.93;103172.25;5100965;28;20048;-56
2022/01/26 05:48:44;;;;;;;89.88;44.80;;;;;;;6.12;60.57;103183.06;5100279;28;20040;-57
2022/01/26 05:51:12;;;;;;;87.03;42.15;;;;;;;6.14;60.54;103182.91;5101457;28;20052;-56
2022/01/26 05:53:41;;;;;;;92.45;44.35;;;;;;;6.13;60.49;103176.72;5100558;28;20048;-56
2022/01/26 05:56:09;;;;;;;89.88;44.42;;;;;;;6.14;60.71;103169.56;5100244;28;20058;-56
2022/01/26 05:58:37;;;;;;;86.38;43.42;;;;;;;6.10;60.51;103161.00;5099476;28;20041;-56
2022/01/26 06:01:06;;;;;;;91.38;43.15;;;;;;;6.14;60.69;103177.59;5099756;28;20105;-56
2022/01/26 06:03:34;;;;;;;87.30;42.63;;;;;;;6.15;60.87;103180.13;5100136;28;20130;-56
2022/01/26 06:06:02;;;;;;;86.80;43.50;;;;;;;6.13;60.99;103176.72;5099409;28;20393;-56
2022/01/26 06:08:30;;;;;;;89.00;42.33;;;;;;;6.15;60.87;103173.94;5100465;28;20044;-56
2022/01/26 06:11:01;;;;;;;88.80;44.22;;;;;;;6.15;60.71;103166.75;5100329;28;20039;-56
2022/01/26 06:13:29;;;;;;;84.30;42.17;;;;;;;6.16;60.68;103167.63;5098015;28;20086;-55
2022/01/26 06:15:57;;;;;;;90.93;43.70;;;;;;;6.15;60.75;103166.75;5092552;28;20272;-56
2022/01/26 06:18:25;;;;;;;86.32;41.22;;;;;;;6.14;60.91;103162.41;5099139;28;20051;-56
2022/01/26 06:20:53;;;;;;;80.53;39.35;;;;;;;6.13;60.98;103168.72;5098799;28;20043;-56
2022/01/26 06:23:24;;;;;;;81.22;40.92;;;;;;;6.14;60.84;103166.91;5097293;28;20044;-57
2022/01/26 06:25:54;;;;;;;87.30;42.30;;;;;;;6.13;60.79;103167.88;5103396;28;20381;-57
2022/01/26 06:28:26;;;;;;;87.30;43.10;;;;;;;6.12;60.64;103174.19;5103850;28;20059;-54
2022/01/26 06:30:58;;;;;;;84.63;41.22;;;;;;;6.10;61.07;103168.16;5094558;28;20041;-56
2022/01/26 06:33:27;;;;;;;86.47;43.80;;;;;;;6.11;61.11;103173.34;5098942;28;20523;-55
2022/01/26 06:35:57;;;;;;;85.50;41.85;;;;;;;6.11;60.95;103160.00;5099801;28;20039;-55
2022/01/26 06:38:25;;;;;;;82.78;42.45;;;;;;;6.11;61.12;103167.16;5099560;28;20047;-56
2022/01/26 06:40:53;;;;;;;90.05;44.47;;;;;;;6.10;61.10;103155.66;5099546;28;20105;-56
2022/01/26 06:43:27;;;;;;;87.47;40.47;;;;;;;6.11;61.30;103148.47;5096936;28;20071;-53
2022/01/26 06:46:00;;;;;;;87.85;42.95;;;;;;;6.13;61.02;103154.53;5093641;28;20161;-55
2022/01/26 06:48:43;;;;;;;74.30;33.33;;;;;;;6.11;61.17;103165.34;4388740;28;10021624;-55
2022/01/26 06:51:12;;;;;;;85.90;41.53;;;;;;;6.12;61.01;103174.19;5095734;28;20058;-56
2022/01/26 06:53:40;;;;;;;82.40;42.10;;;;;;;6.11;60.95;103168.03;5095963;28;20103;-56
2022/01/26 06:56:10;;;;;;;90.65;43.53;;;;;;;6.11;60.96;103170.69;5096102;28;20044;-57
2022/01/26 06:58:39;;;;;;;89.07;42.15;;;;;;;6.10;61.11;103174.34;5090425;28;20051;-57
2022/01/26 07:01:06;;;;;;;93.22;45.72;;;;;;;6.11;60.93;103180.53;5091281;28;20527;-57
2022/01/26 07:03:34;;;;;;;90.05;42.88;;;;;;;6.14;60.94;103180.25;5095632;28;20052;-57
2022/01/26 07:06:02;;;;;;;90.75;44.03;;;;;;;6.23;60.62;103178.59;5095827;28;20058;-58
2022/01/26 07:08:30;;;;;;;95.03;44.42;;;;;;;6.38;60.33;103177.22;5096298;28;20048;-59
2022/01/26 07:10:59;;;;;;;88.53;44.13;;;;;;;6.54;59.62;103172.19;5093101;28;20055;-57
2022/01/26 07:13:28;;;;;;;89.53;44.80;;;;;;;6.68;59.46;103161.09;5094694;28;20048;-58
2022/01/26 07:21:28;;;;;;;89.07;44.22;;;;;;;6.96;58.17;103155.88;5097177;28;20056;-56
2022/01/26 07:23:57;;;;;;;89.25;44.55;;;;;;;6.88;58.55;103172.66;5097110;28;20067;-56
2022/01/26 07:26:28;;;;;;;90.25;44.78;;;;;;;6.77;58.87;103160.28;5096719;28;20056;-57
2022/01/26 07:28:55;;;;;;;93.50;45.78;;;;;;;6.72;58.99;103177.72;5096673;28;20479;-57
2022/01/26 07:31:25;;;;;;;91.85;44.97;;;;;;;6.61;59.69;103191.19;5097251;28;20085;-55
2022/01/26 07:33:55;;;;;;;93.28;46.17;;;;;;;6.53;59.73;103221.25;5097369;28;20174;-56
2022/01/26 07:36:24;;;;;;;91.63;46.05;;;;;;;6.45;60.21;103205.06;5096916;28;20048;-57
2022/01/26 07:38:54;;;;;;;96.75;45.08;;;;;;;6.40;60.62;103185.94;5097223;28;20059;-54
2022/01/26 07:41:22;;;;;;;105.97;48.35;;;;;;;6.38;60.17;103202.09;5096794;28;20044;-57
2022/01/26 07:43:50;;;;;;;99.90;46.22;;;;;;;6.36;60.46;103205.91;5087159;28;20047;-56
2022/01/26 07:46:18;;;;;;;98.68;46.05;;;;;;;6.31;60.34;103203.63;5096727;28;20130;-57
2022/01/26 07:48:47;;;;;;;104.25;46.90;;;;;;;6.30;60.50;103204.63;5095790;28;20040;-56
2022/01/26 07:51:15;;;;;;;101.45;47.33;;;;;;;6.29;60.89;103194.91;5096564;28;20364;-55
2022/01/26 07:53:44;;;;;;;96.47;48.78;;;;;;;6.28;61.00;103195.06;5096889;28;20113;-55
2022/01/26 07:56:12;;;;;;;95.57;45.78;;;;;;;6.25;61.16;103198.00;5083372;28;20060;-56
2022/01/26 07:58:40;;;;;;;100.65;46.35;;;;;;;6.21;61.04;103192.06;5096231;28;20052;-57
2022/01/26 08:01:08;;;;;;;95.68;45.45;;;;;;;6.19;61.31;103176.19;5096854;28;20051;-56
2022/01/26 08:03:37;;;;;;;95.65;45.65;;;;;;;6.22;61.50;103183.09;5098628;28;20100;-56
2022/01/26 08:06:10;;;;;;;93.80;45.38;;;;;;;6.25;61.70;103206.00;5097119;28;20040;-57
2022/01/26 08:08:38;;;;;;;95.80;46.80;;;;;;;6.25;61.28;103214.84;5099961;28;20075;-57
2022/01/26 08:11:06;;;;;;;95.82;45.70;;;;;;;6.33;61.11;103219.53;5100394;28;20052;-56
2022/01/26 08:13:34;;;;;;;92.47;43.75;;;;;;;6.45;61.22;103232.63;5099829;28;20044;-57
2022/01/26 08:16:01;;;;;;;102.03;46.63;;;;;;;6.59;60.61;103226.06;5100236;28;20044;-56
2022/01/26 08:18:29;;;;;;;103.82;46.58;;;;;;;6.78;60.09;103222.59;5098083;28;20047;-57
2022/01/26 08:21:03;;;;;;;96.05;44.90;;;;;;;6.91;59.39;103214.28;5100904;28;20055;-58
2022/01/26 08:23:35;;;;;;;92.22;43.42;;;;;;;7.05;59.30;103220.03;5100132;28;20076;-58
2022/01/26 08:26:03;;;;;;;91.47;44.25;;;;;;;7.18;58.78;103235.81;5099538;28;20151;-57
2022/01/26 08:28:35;;;;;;;94.63;44.42;;;;;;;7.32;58.50;103237.22;5099416;28;20052;-56
2022/01/26 08:31:03;;;;;;;98.85;45.33;;;;;;;7.37;58.32;103238.47;5099384;28;20043;-61
2022/01/26 08:33:31;;;;;;;96.00;44.45;;;;;;;7.45;58.08;103227.91;5099501;28;20134;-61
2022/01/26 08:35:59;;;;;;;92.55;44.30;;;;;;;7.53;57.69;103221.84;5100155;28;20133;-60
2022/01/26 08:38:27;;;;;;;93.88;45.67;;;;;;;7.46;57.46;103218.88;5099316;28;20081;-59
2022/01/26 08:40:56;;;;;;;85.93;41.45;;;;;;;7.34;58.05;103209.31;5098437;28;20040;-60
2022/01/26 08:43:24;;;;;;;90.15;44.10;;;;;;;7.21;58.67;103205.25;5087810;28;20091;-60
2022/01/26 08:45:52;;;;;;;94.38;43.70;;;;;;;7.07;59.42;103203.84;5099775;28;20063;-60
2022/01/26 08:48:20;;;;;;;88.43;41.58;;;;;;;6.92;60.00;103202.63;5098790;28;20059;-59
2022/01/26 08:50:47;;;;;;;86.07;42.08;;;;;;;6.86;60.37;103220.06;5099526;28;20074;-60
2022/01/26 08:53:15;;;;;;;90.32;42.35;;;;;;;6.78;60.69;103235.94;5099272;28;20040;-59
2022/01/26 08:55:43;;;;;;;90.15;42.03;;;;;;;6.75;60.06;103215.69;5099797;28;20114;-61
2022/01/26 08:58:12;;;;;;;87.78;41.83;;;;;;;6.92;60.20;103224.84;5098778;28;20147;-60
2022/01/26 09:00:40;;;;;;;89.30;43.55;;;;;;;7.07;59.76;103234.09;5099175;28;20048;-60
2022/01/26 09:03:15;;;;;;;87.07;40.05;;;;;;;7.16;58.90;103221.72;5098998;28;20071;-60
2022/01/26 09:05:44;;;;;;;84.13;39.42;;;;;;;7.33;58.70;103238.91;5099638;28;20064;-60
2022/01/26 09:08:11;;;;;;;86.70;39.28;;;;;;;7.46;58.40;103240.28;5099101;28;20471;-61
2022/01/26 09:10:40;;;;;;;81.88;39.35;;;;;;;7.55;58.26;103230.56;5099573;28;20071;-61
2022/01/26 09:13:08;;;;;;;86.60;40.70;;;;;;;7.63;58.11;103222.66;5097964;28;20085;-60
2022/01/26 09:15:39;;;;;;;85.72;41.88;;;;;;;7.60;58.35;103235.47;5087405;28;20167;-61
2022/01/26 09:18:13;;;;;;;88.50;40.65;;;;;;;7.43;58.61;103227.19;5097316;28;20036;-61
2022/01/26 09:20:41;;;;;;;84.07;40.08;;;;;;;7.28;59.03;103227.78;5099445;28;20079;-61
2022/01/26 09:23:08;;;;;;;89.85;42.03;;;;;;;7.13;59.53;103235.38;5099068;28;20105;-61
2022/01/26 09:25:36;;;;;;;86.90;40.03;;;;;;;7.01;60.10;103233.81;5098154;28;20087;-62
2022/01/26 09:28:04;;;;;;;79.38;38.22;;;;;;;6.89;60.63;103237.66;5097688;28;20535;-60
2022/01/26 09:30:32;;;;;;;80.60;40.03;;;;;;;6.80;60.67;103237.50;5099255;28;20587;-61
2022/01/26 09:33:01;;;;;;;81.57;39.08;;;;;;;6.76;60.94;103244.09;5098982;28;20379;-60
2022/01/26 09:35:29;;;;;;;80.43;39.15;;;;;;;6.68;61.15;103246.63;5099026;28;20105;-61
2022/01/26 09:37:57;;;;;;;81.57;39.35;;;;;;;6.63;61.67;103253.34;5098455;28;20052;-59
2022/01/26 09:40:24;;;;;;;83.15;38.15;;;;;;;6.58;61.39;103258.25;5098749;28;20056;-61
2022/01/26 09:42:52;;;;;;;74.93;36.08;;;;;;;6.57;61.74;103245.88;5095941;28;20044;-60
2022/01/26 09:45:20;;;;;;;86.50;41.92;;;;;;;6.51;61.83;103249.94;5098219;28;20078;-61
2022/01/26 09:47:48;;;;;;;76.47;36.38;;;;;;;6.48;61.87;103245.72;5098764;28;20485;-60
2022/01/26 09:50:37;;;;;;;78.65;37.65;;;;;;;6.45;62.00;103235.31;5098709;28;20062;-61
2022/01/26 09:53:05;;;;;;;76.68;37.47;;;;;;;6.41;62.20;103222.34;5098357;28;20070;-61
2022/01/26 09:55:33;;;;;;;84.70;38.63;;;;;;;6.38;62.33;103226.16;5098234;28;20079;-60
2022/01/26 09:58:06;;;;;;;78.15;37.47;;;;;;;6.37;62.52;103221.78;5097726;28;20062;-61
2022/01/26 10:00:34;;;;;;;72.18;38.28;;;;;;;6.43;62.17;103218.56;5098330;28;20056;-61
2022/01/26 10:03:04;;;;;;;76.88;35.55;;;;;;;6.58;61.86;103211.00;5097861;28;20058;-60
2022/01/26 10:05:44;;;;;;;78.53;36.65;;;;;;;6.77;61.59;103210.19;5098524;28;20060;-61
2022/01/26 10:08:25;;;;;;;71.47;35.17;;;;;;;6.91;61.07;103207.13;5098151;28;20048;-62
2022/01/26 10:17:18;;;;;;;69.68;34.00;;;;;;;7.44;58.94;103201.28;5098421;28;20528;-60
2022/01/26 10:19:42;;;;;;;73.32;33.08;;;;;;;7.58;58.58;103202.66;5084802;28;20055;-60
2022/01/26 10:22:11;;;;;;;69.78;33.90;;;;;;;7.68;58.07;103207.00;5098128;28;20102;-60
2022/01/26 10:24:39;;;;;;;70.55;34.03;;;;;;;7.62;58.12;103201.41;5097321;28;20416;-61
2022/01/26 10:27:08;;;;;;;68.90;33.72;;;;;;;7.50;59.12;103204.25;5097611;28;20091;-61
2022/01/26 10:29:36;;;;;;;68.63;33.38;;;;;;;7.37;59.26;103210.88;5096986;28;20075;-60
2022/01/26 10:32:12;;;;;;;73.65;36.13;;;;;;;7.18;59.97;103193.84;5098089;28;20079;-60
2022/01/26 10:34:40;;;;;;;69.72;32.45;;;;;;;7.08;60.12;103192.19;5097674;28;20052;-61
2022/01/26 10:37:08;;;;;;;69.60;33.75;;;;;;;7.02;60.11;103190.06;5098080;28;20152;-61
2022/01/26 10:39:42;;;;;;;71.85;34.78;;;;;;;6.95;60.54;103191.63;5097239;28;20105;-60
2022/01/26 10:42:18;;;;;;;64.75;32.25;;;;;;;6.88;61.34;103193.19;5086318;28;20511;-60
2022/01/26 10:44:52;;;;;;;64.85;33.95;;;;;;;6.82;61.48;103206.13;5094130;28;20112;-60
2022/01/26 10:47:27;;;;;;;74.07;32.13;;;;;;;6.76;61.31;103224.53;5098252;28;20083;-60
2022/01/26 10:50:08;;;;;;;69.32;34.65;;;;;;;6.61;61.90;103221.44;5096747;28;20063;-60
2022/01/26 10:52:38;;;;;;;67.70;34.35;;;;;;;6.66;61.98;103256.59;5097644;28;20052;-60
2022/01/26 10:55:09;;;;;;;65.00;33.38;;;;;;;6.65;61.94;103259.41;5097565;28;20051;-60
2022/01/26 10:57:37;;;;;;;64.88;31.55;;;;;;;6.61;62.35;103249.97;5097036;28;20058;-60
2022/01/26 11:00:07;;;;;;;59.67;31.85;;;;;;;6.59;62.55;103246.59;5096645;28;20085;-60
2022/01/26 11:02:36;;;;;;;71.13;35.42;;;;;;;6.55;62.43;103242.50;5097359;28;20048;-60
2022/01/26 11:05:04;;;;;;;67.03;32.50;;;;;;;6.53;62.44;103242.63;5096540;28;20132;-60
2022/01/26 11:07:36;;;;;;;60.03;30.70;;;;;;;6.49;62.76;103242.06;5096790;28;20056;-60
2022/01/26 11:10:08;;;;;;;67.00;33.83;;;;;;;6.48;62.74;103243.03;5097247;28;20071;-60
2022/01/26 11:12:40;;;;;;;66.18;32.10;;;;;;;6.45;63.03;103237.13;5097079;28;20040;-61
2022/01/26 11:15:10;;;;;;;63.00;32.58;;;;;;;6.43;62.78;103237.25;5096143;28;20044;-60
2022/01/26 11:17:42;;;;;;;67.93;31.95;;;;;;;6.47;62.90;103233.34;5093929;28;20048;-60
2022/01/26 11:20:19;;;;;;;67.45;32.28;;;;;;;6.60;62.37;103222.41;5095811;28;20120;-60
2022/01/26 11:22:52;;;;;;;69.88;33.10;;;;;;;6.79;61.94;103216.25;5085073;28;20155;-60
2022/01/26 11:25:23;;;;;;;66.82;31.92;;;;;;;6.92;61.69;103218.66;5097020;28;20048;-60
2022/01/26 11:27:53;;;;;;;64.80;31.75;;;;;;;7.08;60.74;103222.44;5096856;28;20063;-66
2022/01/26 11:30:26;;;;;;;62.05;30.98;;;;;;;7.25;60.38;103226.22;5096925;28;20044;-60
2022/01/26 11:32:58;;;;;;;61.25;31.60;;;;;;;7.41;60.13;103225.66;5097675;28;20051;-60
2022/01/26 11:35:28;;;;;;;62.50;30.45;;;;;;;7.57;59.62;103219.72;5096422;28;20268;-61
2022/01/26 11:38:11;;;;;;;61.65;31.10;;;;;;;7.68;59.03;103220.41;5096171;28;20075;-60
2022/01/26 11:46:34;;;;;;;61.90;30.77;;;;;;;7.76;58.66;103200.94;5058035;28;20708;-61
2022/01/26 11:49:07;;;;;;;63.58;32.10;;;;;;;7.60;59.38;103193.50;5056962;28;20110;-61
2022/01/26 11:51:47;;;;;;;59.08;30.52;;;;;;;7.42;59.69;103193.41;5057791;28;20053;-60
2022/01/26 11:54:17;;;;;;;58.53;30.42;;;;;;;7.28;60.32;103187.66;5057378;28;20076;-60
2022/01/26 11:56:58;;;;;;;58.00;30.63;;;;;;;7.15;60.85;103191.47;5057735;28;20156;-60
2022/01/26 11:59:29;;;;;;;64.03;31.98;;;;;;;7.08;61.08;103178.81;5056952;28;20080;-60
2022/01/26 12:02:01;;;;;;;56.95;29.67;;;;;;;7.05;61.14;103187.13;5056907;28;20048;-60
2022/01/26 12:04:33;;;;;;;56.20;30.20;;;;;;;6.97;61.46;103176.28;5057079;28;20683;-60
2022/01/26 12:07:13;;;;;;;59.90;31.40;;;;;;;6.92;62.13;103178.56;5057634;28;20140;-60
2022/01/26 12:09:42;;;;;;;58.20;28.27;;;;;;;6.89;62.13;103184.19;5055549;28;20065;-60
2022/01/26 12:12:17;;;;;;;57.17;31.05;;;;;;;6.83;62.20;103170.41;5054982;28;20080;-59
2022/01/26 12:15:01;;;;;;;55.47;29.77;;;;;;;6.81;61.98;103185.72;5056413;28;20037;-61
2022/01/26 12:17:33;;;;;;;61.75;31.20;;;;;;;6.79;62.44;103190.38;5054973;28;20057;-59
2022/01/26 12:32:01;;;;;;;58.50;31.20;;;;;;;6.77;62.60;103164.78;5053576;28;20260;-60
2022/01/26 12:34:43;;;;;;;60.67;30.52;;;;;;;6.62;62.92;103163.50;5099565;28;20421;-60
2022/01/26 12:37:18;;;;;;;64.32;31.27;;;;;;;6.59;62.70;103163.78;5099971;28;20106;-66
2022/01/26 12:42:56;;;;;;;66.28;30.00;;;;;;;6.75;62.61;103172.94;5086520;28;20040;-59
2022/01/26 12:45:47;;;;;;;55.67;28.58;;;;;;;6.94;61.73;103169.38;5093258;28;20386;-60
2022/01/26 12:48:18;;;;;;;56.85;28.27;;;;;;;7.12;61.59;103173.03;5099023;28;20109;-61
2022/01/26 12:50:46;;;;;;;58.38;28.20;;;;;;;7.25;60.73;103156.69;5094504;28;20105;-60
2022/01/26 12:53:14;;;;;;;52.47;28.45;;;;;;;7.42;60.18;103165.81;5100211;28;20101;-60
2022/01/26 12:55:41;;;;;;;52.05;28.02;;;;;;;7.55;60.15;103162.81;5099757;28;20040;-61
2022/01/26 12:58:09;;;;;;;53.38;27.67;;;;;;;7.68;59.31;103166.88;5098863;28;20161;-60
2022/01/26 13:00:39;;;;;;;59.58;28.25;;;;;;;7.81;59.15;103172.75;5098982;28;20139;-61
2022/01/26 13:03:12;;;;;;;52.85;28.00;;;;;;;7.77;59.24;103171.34;5099021;28;20166;-61